sensor_id;sensor_type;location;lat;lon;timestamp;pressure;altitude;pressure_sealevel;temperature;humidity
31096;BME280;17749;51.962;8.560;2022-12-07T06:02:52;99938.25;;;3.18;100.00
31096;BME280;17749;51.962;8.560;2022-12-07T06:05:18;99936.53;;;3.16;100.00
31096;BME280;17749;51.962;8.560;2022-12-07T06:07:45;99935.69;;;3.14;100.00
31096;BME280;17749;51.962;8.560;2022-12-07T06:10:12;99936.56;;;3.13;100.00
31096;BME280;17749;51.962;8.560;2022-12-07T06:12:39;99939.25;;;3.10;100.00
31096;BME280;17749;51.962;8.560;2022-12-07T06:15:09;99944.50;;;3.10;100.00
31096;BME280;17749;51.962;8.560;2022-12-07T06:17:36;99935.81;;;3.04;100.00
31096;BME280;17749;51.962;8.560;2022-12-07T06:20:04;99934.09;;;3.00;100.00
31096;BME280;17749;51.962;8.560;2022-12-07T06:22:31;99930.59;;;3.01;100.00
31096;BME280;17749;51.962;8.560;2022-12-07T06:24:58;99929.69;;;3.02;100.00
31096;BME280;17749;51.962;8.560;2022-12-07T06:27:24;99929.72;;;2.99;100.00
31096;BME280;17749;51.962;8.560;2022-12-07T06:29:51;99937.66;;;2.96;100.00
31096;BME280;17749;51.962;8.560;2022-12-07T06:32:18;99931.50;;;2.97;100.00
31096;BME280;17749;51.962;8.560;2022-12-07T06:34:45;99934.13;;;2.97;100.00
31096;BME280;17749;51.962;8.560;2022-12-07T06:37:14;99934.13;;;2.99;100.00
31096;BME280;17749;51.962;8.560;2022-12-07T06:39:40;99934.13;;;2.96;100.00
31096;BME280;17749;51.962;8.560;2022-12-07T06:42:07;99930.63;;;2.95;100.00
31096;BME280;17749;51.962;8.560;2022-12-07T06:44:34;99935.84;;;2.98;100.00
31096;BME280;17749;51.962;8.560;2022-12-07T06:47:01;99925.38;;;2.95;100.00
31096;BME280;17749;51.962;8.560;2022-12-07T06:49:48;99937.63;;;2.98;100.00
31096;BME280;17749;51.962;8.560;2022-12-07T06:52:15;99926.25;;;2.96;100.00
31096;BME280;17749;51.962;8.560;2022-12-07T06:54:44;99935.94;;;2.92;100.00
31096;BME280;17749;51.962;8.560;2022-12-07T06:57:31;99931.59;;;2.88;100.00
31096;BME280;17749;51.962;8.560;2022-12-07T06:59:58;99936.88;;;2.85;100.00
31096;BME280;17749;51.962;8.560;2022-12-07T07:02:25;99936.03;;;2.86;100.00
31096;BME280;17749;51.962;8.560;2022-12-07T07:04:52;99937.75;;;2.87;100.00
31096;BME280;17749;51.962;8.560;2022-12-07T07:07:19;99934.22;;;2.88;100.00
31096;BME280;17749;51.962;8.560;2022-12-07T07:09:46;99950.88;;;2.90;100.00
31096;BME280;17749;51.962;8.560;2022-12-07T07:12:13;99950.00;;;2.91;100.00
31096;BME280;17749;51.962;8.560;2022-12-07T07:14:40;99940.34;;;2.90;100.00
31096;BME280;17749;51.962;8.560;2022-12-07T07:17:07;99946.53;;;2.84;100.00
31096;BME280;17749;51.962;8.560;2022-12-07T07:19:34;99954.44;;;2.84;100.00
31096;BME280;17749;51.962;8.560;2022-12-07T07:22:01;99943.97;;;2.80;100.00
31096;BME280;17749;51.962;8.560;2022-12-07T07:24:28;99958.00;;;2.79;100.00
31096;BME280;17749;51.962;8.560;2022-12-07T07:26:55;99962.38;;;2.80;100.00
31096;BME280;17749;51.962;8.560;2022-12-07T07:29:22;99956.28;;;2.78;100.00
31096;BME280;17749;51.962;8.560;2022-12-07T07:31:49;99956.28;;;2.78;100.00
31096;BME280;17749;51.962;8.560;2022-12-07T07:34:16;99965.00;;;2.80;100.00
31096;BME280;17749;51.962;8.560;2022-12-07T07:36:43;99965.00;;;2.80;100.00
31096;BME280;17749;51.962;8.560;2022-12-07T07:39:10;99965.91;;;2.79;100.00
31096;BME280;17749;51.962;8.560;2022-12-07T07:41:39;99963.25;;;2.79;100.00
31096;BME280;17749;51.962;8.560;2022-12-07T07:44:12;99967.63;;;2.80;100.00
31096;BME280;17749;51.962;8.560;2022-12-07T07:46:39;99965.91;;;2.79;100.00
31096;BME280;17749;51.962;8.560;2022-12-07T07:49:06;99968.53;;;2.79;100.00
31096;BME280;17749;51.962;8.560;2022-12-07T07:51:32;99971.16;;;2.77;100.00
31096;BME280;17749;51.962;8.560;2022-12-07T07:53:59;99976.44;;;2.76;100.00
31096;BME280;17749;51.962;8.560;2022-12-07T07:56:26;99977.31;;;2.78;100.00
31096;BME280;17749;51.962;8.560;2022-12-07T07:58:54;99972.88;;;2.80;100.00
31096;BME280;17749;51.962;8.560;2022-12-07T08:01:21;99971.16;;;2.79;100.00
31096;BME280;17749;51.962;8.560;2022-12-07T08:03:48;99965.91;;;2.79;100.00
31096;BME280;17749;51.962;8.560;2022-12-07T08:06:15;99979.09;;;2.74;100.00
31096;BME280;17749;51.962;8.560;2022-12-07T08:08:42;99977.31;;;2.78;100.00
31096;BME280;17749;51.962;8.560;2022-12-07T08:11:10;99972.88;;;2.80;100.00
31096;BME280;17749;51.962;8.560;2022-12-07T08:13:37;99971.16;;;2.80;100.00
31096;BME280;17749;51.962;8.560;2022-12-07T08:16:06;99985.16;;;2.81;100.00
31096;BME280;17749;51.962;8.560;2022-12-07T08:18:39;99978.16;;;2.81;100.00
31096;BME280;17749;51.962;8.560;2022-12-07T08:21:08;99983.41;;;2.83;100.00
31096;BME280;17749;51.962;8.560;2022-12-07T08:23:36;99979.88;;;2.84;100.00
31096;BME280;17749;51.962;8.560;2022-12-07T08:26:08;99978.16;;;2.83;100.00
31096;BME280;17749;51.962;8.560;2022-12-07T08:28:35;99979.88;;;2.84;100.00
31096;BME280;17749;51.962;8.560;2022-12-07T08:31:07;99978.16;;;2.83;100.00
31096;BME280;17749;51.962;8.560;2022-12-07T08:33:35;99980.72;;;2.86;100.00
31096;BME280;17749;51.962;8.560;2022-12-07T08:36:07;99988.59;;;2.89;100.00
31096;BME280;17749;51.962;8.560;2022-12-07T08:38:35;99981.56;;;2.91;100.00
31096;BME280;17749;51.962;8.560;2022-12-07T08:41:03;99981.56;;;2.91;100.00
31096;BME280;17749;51.962;8.560;2022-12-07T08:43:30;99980.66;;;2.94;100.00
31096;BME280;17749;51.962;8.560;2022-12-07T08:49:12;99970.13;;;2.94;100.00
31096;BME280;17749;51.962;8.560;2022-12-07T08:51:40;99983.25;;;2.95;100.00
31096;BME280;17749;51.962;8.560;2022-12-07T08:54:11;99970.97;;;2.97;100.00
31096;BME280;17749;51.962;8.560;2022-12-07T08:56:40;99977.94;;;2.98;100.00
31096;BME280;17749;51.962;8.560;2022-12-07T08:59:08;99971.81;;;2.99;100.00
31096;BME280;17749;51.962;8.560;2022-12-07T09:01:35;99974.41;;;3.02;100.00
31096;BME280;17749;51.962;8.560;2022-12-07T09:04:02;99970.88;;;3.03;100.00
31096;BME280;17749;51.962;8.560;2022-12-07T09:06:28;99977.03;;;3.04;100.00
31096;BME280;17749;51.962;8.560;2022-12-07T09:08:58;99973.53;;;3.02;100.00
31096;BME280;17749;51.962;8.560;2022-12-07T09:11:25;99970.06;;;2.98;100.00
31096;BME280;17749;51.962;8.560;2022-12-07T09:13:55;99969.19;;;2.98;100.00
31096;BME280;17749;51.962;8.560;2022-12-07T09:16:22;99977.06;;;2.99;100.00
31096;BME280;17749;51.962;8.560;2022-12-07T09:18:48;99981.44;;;3.00;100.00
31096;BME280;17749;51.962;8.560;2022-12-07T09:21:15;99980.53;;;3.03;100.00
31096;BME280;17749;51.962;8.560;2022-12-07T09:23:42;99980.50;;;3.06;100.00
31096;BME280;17749;51.962;8.560;2022-12-07T09:26:09;99981.34;;;3.06;100.00
31096;BME280;17749;51.962;8.560;2022-12-07T09:28:37;99985.75;;;3.07;100.00
31096;BME280;17749;51.962;8.560;2022-12-07T09:31:05;99983.97;;;3.10;100.00
31096;BME280;17749;51.962;8.560;2022-12-07T09:34:08;99991.84;;;3.13;100.00
31096;BME280;17749;51.962;8.560;2022-12-07T09:36:35;99978.72;;;3.10;100.00
31096;BME280;17749;51.962;8.560;2022-12-07T09:39:03;99990.97;;;3.12;100.00
31096;BME280;17749;51.962;8.560;2022-12-07T09:41:32;99990.03;;;3.18;100.00
31096;BME280;17749;51.962;8.560;2022-12-07T09:44:09;99994.38;;;3.20;100.00
31096;BME280;17749;51.962;8.560;2022-12-07T09:46:39;99994.34;;;3.22;100.00
31096;BME280;17749;51.962;8.560;2022-12-07T09:49:13;99991.72;;;3.22;100.00
31096;BME280;17749;51.962;8.560;2022-12-07T09:51:42;99994.34;;;3.22;100.00
31096;BME280;17749;51.962;8.560;2022-12-07T09:54:12;99988.16;;;3.24;100.00
31096;BME280;17749;51.962;8.560;2022-12-07T09:56:40;99985.56;;;3.23;100.00
31096;BME280;17749;51.962;8.560;2022-12-07T09:59:13;99986.44;;;3.25;100.00
31096;BME280;17749;51.962;8.560;2022-12-07T10:01:43;99983.75;;;3.26;100.00
31096;BME280;17749;51.962;8.560;2022-12-07T10:04:15;99988.06;;;3.32;100.00
31096;BME280;17749;51.962;8.560;2022-12-07T10:06:43;99983.69;;;3.34;100.00
31096;BME280;17749;51.962;8.560;2022-12-07T10:09:15;99975.78;;;3.36;100.00
31096;BME280;17749;51.962;8.560;2022-12-07T10:12:05;99979.22;;;3.39;100.00
31096;BME280;17749;51.962;8.560;2022-12-07T10:14:36;99978.34;;;3.39;100.00
31096;BME280;17749;51.962;8.560;2022-12-07T10:17:34;99981.84;;;3.41;100.00
31096;BME280;17749;51.962;8.560;2022-12-07T10:22:54;99978.25;;;3.46;100.00
31096;BME280;17749;51.962;8.560;2022-12-07T10:25:24;99972.94;;;3.48;100.00
31096;BME280;17749;51.962;8.560;2022-12-07T10:28:09;99966.81;;;3.49;100.00
31096;BME280;17749;51.962;8.560;2022-12-07T10:31:02;99961.50;;;3.50;100.00
31096;BME280;17749;51.962;8.560;2022-12-07T10:33:36;99963.22;;;3.55;100.00
31096;BME280;17749;51.962;8.560;2022-12-07T10:36:34;99964.88;;;3.62;100.00
31096;BME280;17749;51.962;8.560;2022-12-07T10:39:13;99960.44;;;3.67;100.00
31096;BME280;17749;51.962;8.560;2022-12-07T10:41:59;99959.47;;;3.71;100.00
31096;BME280;17749;51.962;8.560;2022-12-07T10:44:33;99953.28;;;3.75;100.00
31096;BME280;17749;51.962;8.560;2022-12-07T10:47:07;99956.75;;;3.77;100.00
31096;BME280;17749;51.962;8.560;2022-12-07T10:55:21;99947.00;;;3.85;100.00
31096;BME280;17749;51.962;8.560;2022-12-07T10:58:05;99943.41;;;3.89;100.00
31096;BME280;17749;51.962;8.560;2022-12-07T11:01:03;99935.47;;;3.91;100.00
31096;BME280;17749;51.962;8.560;2022-12-07T11:03:37;99945.06;;;3.97;100.00
31096;BME280;17749;51.962;8.560;2022-12-07T11:06:30;99939.72;;;4.00;100.00
31096;BME280;17749;51.962;8.560;2022-12-07T11:14:44;99943.09;;;4.08;100.00
31096;BME280;17749;51.962;8.560;2022-12-07T11:17:22;99932.56;;;4.08;100.00
31096;BME280;17749;51.962;8.560;2022-12-07T11:20:05;99924.66;;;4.09;100.00
31096;BME280;17749;51.962;8.560;2022-12-07T11:25:17;99920.28;;;4.07;100.00
31096;BME280;17749;51.962;8.560;2022-12-07T11:28:07;99921.03;;;4.13;100.00
31096;BME280;17749;51.962;8.560;2022-12-07T11:33:52;99915.59;;;4.24;100.00
31096;BME280;17749;51.962;8.560;2022-12-07T11:36:30;99911.22;;;4.23;100.00
31096;BME280;17749;51.962;8.560;2022-12-07T11:39:04;99905.03;;;4.26;100.00
31096;BME280;17749;51.962;8.560;2022-12-07T11:41:40;99899.75;;;4.26;100.00
31096;BME280;17749;51.962;8.560;2022-12-07T11:44:30;99895.28;;;4.29;100.00
31096;BME280;17749;51.962;8.560;2022-12-07T11:47:13;99887.34;;;4.32;100.00
31096;BME280;17749;51.962;8.560;2022-12-07T11:49:51;99891.72;;;4.33;100.00
31096;BME280;17749;51.962;8.560;2022-12-07T11:52:38;99886.44;;;4.35;100.00
31096;BME280;17749;51.962;8.560;2022-12-07T12:06:44;99870.34;;;4.49;100.00
31096;BME280;17749;51.962;8.560;2022-12-07T12:09:54;99869.41;;;4.51;100.00
31096;BME280;17749;51.962;8.560;2022-12-07T12:15:42;99864.09;;;4.53;100.00
31096;BME280;17749;51.962;8.560;2022-12-07T12:18:42;99867.63;;;4.53;100.00
31096;BME280;17749;51.962;8.560;2022-12-07T12:21:16;99867.59;;;4.55;100.00
31096;BME280;17749;51.962;8.560;2022-12-07T12:23:48;99857.00;;;4.56;100.00
31096;BME280;17749;51.962;8.560;2022-12-07T12:26:20;99863.88;;;4.64;100.00
31096;BME280;17749;51.962;8.560;2022-12-07T12:28:55;99854.19;;;4.66;100.00
31096;BME280;17749;51.962;8.560;2022-12-07T12:33:58;99853.31;;;4.67;100.00
31096;BME280;17749;51.962;8.560;2022-12-07T12:36:43;99855.03;;;4.66;100.00
31096;BME280;17749;51.962;8.560;2022-12-07T12:39:11;99857.56;;;4.72;100.00
31096;BME280;17749;51.962;8.560;2022-12-07T12:46:47;99853.97;;;4.76;100.00
31096;BME280;17749;51.962;8.560;2022-12-07T12:51:49;99841.47;;;4.84;100.00
31096;BME280;17749;51.962;8.560;2022-12-07T12:54:28;99832.81;;;4.79;100.00
31096;BME280;17749;51.962;8.560;2022-12-07T13:02:24;99831.06;;;4.78;100.00
31096;BME280;17749;51.962;8.560;2022-12-07T13:15:46;99830.28;;;4.75;100.00
31096;BME280;17749;51.962;8.560;2022-12-07T13:23:23;99828.50;;;4.74;100.00
31096;BME280;17749;51.962;8.560;2022-12-07T13:28:25;99817.22;;;4.67;100.00
31096;BME280;17749;51.962;8.560;2022-12-07T13:31:03;99824.31;;;4.65;100.00
31096;BME280;17749;51.962;8.560;2022-12-07T13:33:34;99815.53;;;4.63;100.00
31096;BME280;17749;51.962;8.560;2022-12-07T13:36:01;99819.16;;;4.59;100.00
31096;BME280;17749;51.962;8.560;2022-12-07T13:38:31;99812.13;;;4.58;100.00
31096;BME280;17749;51.962;8.560;2022-12-07T13:41:00;99810.47;;;4.54;100.00
31096;BME280;17749;51.962;8.560;2022-12-07T13:43:27;99804.28;;;4.55;100.00
31096;BME280;17749;51.962;8.560;2022-12-07T13:45:58;99800.72;;;4.57;100.00
31096;BME280;17749;51.962;8.560;2022-12-07T13:48:33;99798.06;;;4.59;100.00
31096;BME280;17749;51.962;8.560;2022-12-07T13:51:03;99799.94;;;4.54;100.00
31096;BME280;17749;51.962;8.560;2022-12-07T13:53:30;99811.34;;;4.54;100.00
31096;BME280;17749;51.962;8.560;2022-12-07T13:55:58;99806.13;;;4.51;100.00
31096;BME280;17749;51.962;8.560;2022-12-07T13:58:27;99804.44;;;4.47;100.00
31096;BME280;17749;51.962;8.560;2022-12-07T14:00:56;99809.75;;;4.46;100.00
31096;BME280;17749;51.962;8.560;2022-12-07T14:03:28;99807.94;;;4.48;100.00
31096;BME280;17749;51.962;8.560;2022-12-07T14:06:19;99808.00;;;4.46;100.00
31096;BME280;17749;51.962;8.560;2022-12-07T14:08:47;99801.88;;;4.43;100.00
31096;BME280;17749;51.962;8.560;2022-12-07T14:11:20;99798.44;;;4.41;100.00
31096;BME280;17749;51.962;8.560;2022-12-07T14:13:58;99797.59;;;4.38;100.00
31096;BME280;17749;51.962;8.560;2022-12-07T14:16:32;99795.84;;;4.37;100.00
31096;BME280;17749;51.962;8.560;2022-12-07T14:19:01;99799.38;;;4.36;100.00
31096;BME280;17749;51.962;8.560;2022-12-07T14:21:32;99794.09;;;4.38;100.00
31096;BME280;17749;51.962;8.560;2022-12-07T14:24:19;99781.84;;;4.35;100.00
31096;BME280;17749;51.962;8.560;2022-12-07T14:26:49;99786.28;;;4.33;100.00
31096;BME280;17749;51.962;8.560;2022-12-07T14:31:49;99785.41;;;4.31;100.00
31096;BME280;17749;51.962;8.560;2022-12-07T14:34:16;99785.47;;;4.30;100.00
31096;BME280;17749;51.962;8.560;2022-12-07T14:36:43;99788.13;;;4.28;100.00
31096;BME280;17749;51.962;8.560;2022-12-07T14:39:09;99786.44;;;4.24;100.00
31096;BME280;17749;51.962;8.560;2022-12-07T14:41:39;99789.06;;;4.24;100.00
31096;BME280;17749;51.962;8.560;2022-12-07T14:44:20;99786.50;;;4.21;100.00
31096;BME280;17749;51.962;8.560;2022-12-07T14:46:51;99782.13;;;4.20;100.00
31096;BME280;17749;51.962;8.560;2022-12-07T14:49:39;99779.56;;;4.17;100.00
31096;BME280;17749;51.962;8.560;2022-12-07T14:52:12;99783.94;;;4.16;100.00
31096;BME280;17749;51.962;8.560;2022-12-07T14:55:00;99777.94;;;4.10;100.00
31096;BME280;17749;51.962;8.560;2022-12-07T14:57:27;99779.72;;;4.09;100.00
31096;BME280;17749;51.962;8.560;2022-12-07T14:59:54;99772.72;;;4.07;100.00
31096;BME280;17749;51.962;8.560;2022-12-07T15:02:21;99775.44;;;4.02;100.00
31096;BME280;17749;51.962;8.560;2022-12-07T15:04:48;99779.00;;;4.00;100.00
31096;BME280;17749;51.962;8.560;2022-12-07T15:07:19;99771.16;;;3.97;100.00
31096;BME280;17749;51.962;8.560;2022-12-07T15:09:47;99773.84;;;3.93;100.00
31096;BME280;17749;51.962;8.560;2022-12-07T15:12:15;99773.06;;;3.88;100.00
31096;BME280;17749;51.962;8.560;2022-12-07T15:14:42;99778.28;;;3.91;100.00
31096;BME280;17749;51.962;8.560;2022-12-07T15:17:10;99775.72;;;3.87;100.00
31096;BME280;17749;51.962;8.560;2022-12-07T15:19:53;99780.06;;;3.89;100.00
31096;BME280;17749;51.962;8.560;2022-12-07T15:22:20;99779.19;;;3.89;100.00
31096;BME280;17749;51.962;8.560;2022-12-07T15:24:47;99779.25;;;3.86;100.00
31096;BME280;17749;51.962;8.560;2022-12-07T15:27:14;99781.97;;;3.81;100.00
31096;BME280;17749;51.962;8.560;2022-12-07T15:29:41;99775.78;;;3.84;100.00
31096;BME280;17749;51.962;8.560;2022-12-07T15:32:08;99780.19;;;3.83;100.00
31096;BME280;17749;51.962;8.560;2022-12-07T15:34:35;99767.88;;;3.82;100.00
31096;BME280;17749;51.962;8.560;2022-12-07T15:37:07;99771.41;;;3.83;100.00
31096;BME280;17749;51.962;8.560;2022-12-07T15:39:36;99769.72;;;3.80;100.00
31096;BME280;17749;51.962;8.560;2022-12-07T15:42:03;99766.22;;;3.78;100.00
31096;BME280;17749;51.962;8.560;2022-12-07T15:44:30;99766.22;;;3.78;100.00
31096;BME280;17749;51.962;8.560;2022-12-07T15:47:15;99766.28;;;3.75;100.00
31096;BME280;17749;51.962;8.560;2022-12-07T15:49:42;99762.81;;;3.71;100.00
31096;BME280;17749;51.962;8.560;2022-12-07T15:52:09;99762.81;;;3.73;100.00
31096;BME280;17749;51.962;8.560;2022-12-07T15:54:36;99760.25;;;3.68;100.00
31096;BME280;17749;51.962;8.560;2022-12-07T15:57:03;99756.75;;;3.68;100.00
31096;BME280;17749;51.962;8.560;2022-12-07T15:59:30;99764.72;;;3.65;100.00
31096;BME280;17749;51.962;8.560;2022-12-07T16:01:57;99759.38;;;3.68;100.00
31096;BME280;17749;51.962;8.560;2022-12-07T16:04:27;99765.50;;;3.70;100.00
31096;BME280;17749;51.962;8.560;2022-12-07T16:06:54;99754.22;;;3.62;100.00
31096;BME280;17749;51.962;8.560;2022-12-07T16:09:21;99748.13;;;3.60;100.00
31096;BME280;17749;51.962;8.560;2022-12-07T16:11:48;99759.53;;;3.59;100.00
31096;BME280;17749;51.962;8.560;2022-12-07T16:14:17;99759.50;;;3.62;100.00
31096;BME280;17749;51.962;8.560;2022-12-07T16:16:44;99756.88;;;3.60;100.00
31096;BME280;17749;51.962;8.560;2022-12-07T16:19:11;99742.78;;;3.64;100.00
31096;BME280;17749;51.962;8.560;2022-12-07T16:21:38;99747.16;;;3.64;100.00
31096;BME280;17749;51.962;8.560;2022-12-07T16:24:06;99743.63;;;3.65;100.00
31096;BME280;17749;51.962;8.560;2022-12-07T16:26:33;99738.38;;;3.65;100.00
31096;BME280;17749;51.962;8.560;2022-12-07T16:29:00;99737.66;;;3.57;100.00
31096;BME280;17749;51.962;8.560;2022-12-07T16:31:28;99739.50;;;3.50;100.00
31096;BME280;17749;51.962;8.560;2022-12-07T16:33:56;99730.75;;;3.49;100.00
31096;BME280;17749;51.962;8.560;2022-12-07T16:36:24;99739.47;;;3.51;100.00
31096;BME280;17749;51.962;8.560;2022-12-07T16:39:13;99742.00;;;3.58;100.00
31096;BME280;17749;51.962;8.560;2022-12-07T16:41:39;99750.84;;;3.54;100.00
31096;BME280;17749;51.962;8.560;2022-12-07T16:44:10;99746.50;;;3.51;100.00
31096;BME280;17749;51.962;8.560;2022-12-07T16:46:38;99747.44;;;3.48;100.00
31096;BME280;17749;51.962;8.560;2022-12-07T16:49:05;99745.66;;;3.49;100.00
31096;BME280;17749;51.962;8.560;2022-12-07T16:51:32;99739.50;;;3.50;100.00
31096;BME280;17749;51.962;8.560;2022-12-07T16:54:01;99742.13;;;3.50;100.00
31096;BME280;17749;51.962;8.560;2022-12-07T16:56:28;99742.19;;;3.48;100.00
31096;BME280;17749;51.962;8.560;2022-12-07T16:58:58;99737.78;;;3.49;100.00
31096;BME280;17749;51.962;8.560;2022-12-07T17:01:25;99738.63;;;3.49;100.00
31096;BME280;17749;51.962;8.560;2022-12-07T17:03:56;99736.91;;;3.48;100.00
31096;BME280;17749;51.962;8.560;2022-12-07T17:06:26;99732.56;;;3.46;100.00
31096;BME280;17749;51.962;8.560;2022-12-07T17:08:54;99730.84;;;3.43;100.00
31096;BME280;17749;51.962;8.560;2022-12-07T17:11:25;99721.13;;;3.48;100.00
31096;BME280;17749;51.962;8.560;2022-12-07T17:13:53;99720.25;;;3.46;100.00
31096;BME280;17749;51.962;8.560;2022-12-07T17:16:39;99716.78;;;3.44;100.00
31096;BME280;17749;51.962;8.560;2022-12-07T17:19:08;99721.19;;;3.42;100.00
31096;BME280;17749;51.962;8.560;2022-12-07T17:21:36;99711.56;;;3.41;100.00
31096;BME280;17749;51.962;8.560;2022-12-07T17:24:07;99705.47;;;3.39;100.00
31096;BME280;17749;51.962;8.560;2022-12-07T17:26:35;99700.25;;;3.36;100.00
31096;BME280;17749;51.962;8.560;2022-12-07T17:29:03;99699.41;;;3.36;100.00
31096;BME280;17749;51.962;8.560;2022-12-07T17:31:31;99706.41;;;3.35;100.00
31096;BME280;17749;51.962;8.560;2022-12-07T17:33:59;99698.50;;;3.35;100.00
31096;BME280;17749;51.962;8.560;2022-12-07T17:36:28;99706.47;;;3.32;100.00
31096;BME280;17749;51.962;8.560;2022-12-07T17:38:56;99702.97;;;3.30;100.00
31096;BME280;17749;51.962;8.560;2022-12-07T17:41:27;99706.50;;;3.29;100.00
31096;BME280;17749;51.962;8.560;2022-12-07T17:44:15;99704.84;;;3.25;100.00
31096;BME280;17749;51.962;8.560;2022-12-07T17:46:44;99703.16;;;3.21;100.00
31096;BME280;17749;51.962;8.560;2022-12-07T17:49:12;99695.25;;;3.21;100.00
31096;BME280;17749;51.962;8.560;2022-12-07T17:51:39;99699.59;;;3.23;100.00
31096;BME280;17749;51.962;8.560;2022-12-07T17:54:25;99697.03;;;3.19;100.00
31096;BME280;17749;51.962;8.560;2022-12-07T17:56:51;99688.28;;;3.17;100.00
31096;BME280;17749;51.962;8.560;2022-12-07T17:59:18;99686.69;;;3.08;100.00
31096;BME280;17749;51.962;8.560;2022-12-07T18:01:45;99686.69;;;3.06;100.00
31096;BME280;17749;51.962;8.560;2022-12-07T18:04:13;99687.47;;;3.15;100.00
31096;BME280;17749;51.962;8.560;2022-12-07T18:06:40;99683.13;;;3.11;100.00
31096;BME280;17749;51.962;8.560;2022-12-07T18:09:12;99682.22;;;3.13;100.00
31096;BME280;17749;51.962;8.560;2022-12-07T18:11:39;99679.59;;;3.12;100.00
31096;BME280;17749;51.962;8.560;2022-12-07T18:14:06;99683.09;;;3.14;100.00
31096;BME280;17749;51.962;8.560;2022-12-07T18:16:33;99676.94;;;3.15;100.00
31096;BME280;17749;51.962;8.560;2022-12-07T18:19:03;99683.09;;;3.14;100.00
31096;BME280;17749;51.962;8.560;2022-12-07T18:21:31;99673.41;;;3.14;100.00
31096;BME280;17749;51.962;8.560;2022-12-07T18:24:00;99675.19;;;3.14;100.00
31096;BME280;17749;51.962;8.560;2022-12-07T18:26:28;99662.03;;;3.14;100.00
31096;BME280;17749;51.962;8.560;2022-12-07T18:28:58;99661.09;;;3.18;100.00
31096;BME280;17749;51.962;8.560;2022-12-07T18:31:25;99666.38;;;3.18;100.00
31096;BME280;17749;51.962;8.560;2022-12-07T18:33:52;99671.59;;;3.19;100.00
31096;BME280;17749;51.962;8.560;2022-12-07T18:36:22;99664.53;;;3.23;100.00
31096;BME280;17749;51.962;8.560;2022-12-07T18:38:50;99681.16;;;3.25;100.00
31096;BME280;17749;51.962;8.560;2022-12-07T18:41:17;99677.63;;;3.26;100.00
31096;BME280;17749;51.962;8.560;2022-12-07T18:43:44;99663.63;;;3.24;100.00
31096;BME280;17749;51.962;8.560;2022-12-07T18:46:13;99667.16;;;3.23;100.00
31096;BME280;17749;51.962;8.560;2022-12-07T18:48:40;99666.31;;;3.21;100.00
31096;BME280;17749;51.962;8.560;2022-12-07T18:51:09;99661.09;;;3.18;100.00
31096;BME280;17749;51.962;8.560;2022-12-07T18:53:37;99669.00;;;3.18;100.00
31096;BME280;17749;51.962;8.560;2022-12-07T18:56:06;99663.72;;;3.18;100.00
31096;BME280;17749;51.962;8.560;2022-12-07T18:58:34;99664.59;;;3.17;100.00
31096;BME280;17749;51.962;8.560;2022-12-07T19:01:01;99657.59;;;3.17;100.00
31096;BME280;17749;51.962;8.560;2022-12-07T19:03:28;99658.47;;;3.16;100.00
31096;BME280;17749;51.962;8.560;2022-12-07T19:06:04;99655.03;;;3.13;100.00
31096;BME280;17749;51.962;8.560;2022-12-07T19:08:31;99657.69;;;3.13;100.00
31096;BME280;17749;51.962;8.560;2022-12-07T19:11:00;99653.25;;;3.15;100.00
31096;BME280;17749;51.962;8.560;2022-12-07T19:13:50;99642.81;;;3.08;100.00
31096;BME280;17749;51.962;8.560;2022-12-07T19:16:17;99645.47;;;3.08;100.00
31096;BME280;17749;51.962;8.560;2022-12-07T19:18:44;99656.75;;;3.15;100.00
31096;BME280;17749;51.962;8.560;2022-12-07T19:21:17;99647.94;;;3.18;100.00
31096;BME280;17749;51.962;8.560;2022-12-07T19:23:44;99655.91;;;3.15;100.00
31096;BME280;17749;51.962;8.560;2022-12-07T19:26:11;99655.00;;;3.16;100.00
31096;BME280;17749;51.962;8.560;2022-12-07T19:28:38;99653.22;;;3.18;100.00
31096;BME280;17749;51.962;8.560;2022-12-07T19:31:09;99641.84;;;3.14;100.00
31096;BME280;17749;51.962;8.560;2022-12-07T19:33:38;99644.41;;;3.19;100.00
31096;BME280;17749;51.962;8.560;2022-12-07T19:36:05;99649.66;;;3.19;100.00
31096;BME280;17749;51.962;8.560;2022-12-07T19:38:33;99649.63;;;3.22;100.00
31096;BME280;17749;51.962;8.560;2022-12-07T19:41:07;99637.41;;;3.18;100.00
31096;BME280;17749;51.962;8.560;2022-12-07T19:43:55;99640.78;;;3.26;100.00
31096;BME280;17749;51.962;8.560;2022-12-07T19:46:22;99645.19;;;3.25;100.00
31096;BME280;17749;51.962;8.560;2022-12-07T19:48:49;99639.94;;;3.24;100.00
31096;BME280;17749;51.962;8.560;2022-12-07T19:51:16;99641.69;;;3.25;100.00
31096;BME280;17749;51.962;8.560;2022-12-07T19:53:44;99644.31;;;3.25;100.00
31096;BME280;17749;51.962;8.560;2022-12-07T19:56:15;99638.16;;;3.26;100.00
31096;BME280;17749;51.962;8.560;2022-12-07T19:58:43;99622.34;;;3.26;100.00
31096;BME280;17749;51.962;8.560;2022-12-07T20:01:10;99623.28;;;3.25;100.00
31096;BME280;17749;51.962;8.560;2022-12-07T20:03:37;99625.91;;;3.25;100.00
31096;BME280;17749;51.962;8.560;2022-12-07T20:06:16;99615.38;;;3.25;100.00
31096;BME280;17749;51.962;8.560;2022-12-07T20:08:44;99607.50;;;3.23;100.00
31096;BME280;17749;51.962;8.560;2022-12-07T20:11:12;99604.88;;;3.22;100.00
31096;BME280;17749;51.962;8.560;2022-12-07T20:13:57;99600.66;;;3.15;100.00
31096;BME280;17749;51.962;8.560;2022-12-07T20:16:25;99600.66;;;3.12;100.00
31096;BME280;17749;51.962;8.560;2022-12-07T20:18:52;99591.97;;;3.10;100.00
31096;BME280;17749;51.962;8.560;2022-12-07T20:21:24;99595.41;;;3.12;100.00
31096;BME280;17749;51.962;8.560;2022-12-07T20:23:51;99591.00;;;3.14;100.00
31096;BME280;17749;51.962;8.560;2022-12-07T20:26:18;99584.84;;;3.15;100.00
31096;BME280;17749;51.962;8.560;2022-12-07T20:28:45;99581.38;;;3.13;100.00
31096;BME280;17749;51.962;8.560;2022-12-07T20:31:13;99586.66;;;3.13;100.00
31096;BME280;17749;51.962;8.560;2022-12-07T20:33:42;99588.44;;;3.09;100.00
31096;BME280;17749;51.962;8.560;2022-12-07T20:36:14;99583.97;;;3.14;100.00